createdAt,value
2018-09-28T00:02:11.097Z,3.97
2018-09-28T00:04:41.670Z,3.67
2018-09-28T00:07:12.290Z,4.13
2018-09-28T00:09:42.912Z,3.27
2018-09-28T00:12:13.531Z,3.57
2018-09-28T00:14:44.443Z,4.17
2018-09-28T00:17:15.078Z,4.03
2018-09-28T00:19:45.881Z,4.97
2018-09-28T00:22:16.850Z,5.53
2018-09-28T00:24:47.446Z,4.90
2018-09-28T00:27:18.334Z,4.03
2018-09-28T00:29:48.878Z,3.23
2018-09-28T00:32:19.720Z,3.63
2018-09-28T00:34:50.548Z,4.27
2018-09-28T00:37:21.400Z,4.50
2018-09-28T00:39:52.078Z,4.23
2018-09-28T00:42:23.034Z,4.57
2018-09-28T00:44:53.583Z,6.50
2018-09-28T00:47:24.192Z,4.87
2018-09-28T00:49:55.398Z,5.57
2018-09-28T00:52:26.128Z,3.10
2018-09-28T00:54:57.001Z,3.37
2018-09-28T00:57:27.782Z,4.83
2018-09-28T00:59:58.429Z,5.03
2018-09-28T01:02:29.112Z,3.43
2018-09-28T01:04:59.693Z,4.77
2018-09-28T01:07:30.389Z,3.43
2018-09-28T01:10:01.199Z,2.73
2018-09-28T01:12:32.121Z,3.43
2018-09-28T01:15:02.752Z,3.00
2018-09-28T01:17:33.406Z,3.43
2018-09-28T01:20:04.338Z,2.80
2018-09-28T01:22:35.299Z,3.43
2018-09-28T01:25:06.149Z,3.77
2018-09-28T01:27:36.877Z,4.73
2018-09-28T01:30:07.526Z,3.23
2018-09-28T01:32:38.370Z,4.23
2018-09-28T01:35:09.122Z,4.00
2018-09-28T01:37:39.775Z,2.43
2018-09-28T01:40:10.342Z,3.40
2018-09-28T01:42:41.007Z,3.47
2018-09-28T01:45:12.005Z,3.00
2018-09-28T01:47:42.740Z,4.80
2018-09-28T01:50:13.423Z,4.57
2018-09-28T01:52:44.175Z,4.87
2018-09-28T01:55:14.867Z,7.43
2018-09-28T01:57:45.750Z,4.23
2018-09-28T02:00:16.716Z,2.87
2018-09-28T02:02:47.372Z,3.43
2018-09-28T02:05:18.288Z,2.80
2018-09-28T02:07:48.963Z,4.63
2018-09-28T02:10:20.293Z,3.33
2018-09-28T02:12:51.350Z,8.77
2018-09-28T02:15:22.055Z,4.87
2018-09-28T02:17:52.623Z,3.80
2018-09-28T02:20:23.243Z,3.67
2018-09-28T02:22:53.882Z,3.63
2018-09-28T02:25:24.709Z,4.50
2018-09-28T02:27:55.593Z,2.93
2018-09-28T02:30:26.438Z,3.10
2018-09-28T02:32:57.556Z,2.87
2018-09-28T02:35:28.431Z,3.77
2018-09-28T02:37:59.050Z,2.73
2018-09-28T02:40:29.739Z,3.90
2018-09-28T02:43:00.656Z,3.43
2018-09-28T02:45:31.306Z,3.37
2018-09-28T02:48:02.314Z,3.20
2018-09-28T02:50:32.920Z,3.63
2018-09-28T02:53:03.632Z,4.30
2018-09-28T02:55:34.343Z,3.67
2018-09-28T02:58:05.366Z,3.60
2018-09-28T03:00:36.275Z,6.17
2018-09-28T03:03:06.922Z,3.30
2018-09-28T03:05:37.571Z,3.30
2018-09-28T03:08:09.882Z,3.90
2018-09-28T03:10:40.563Z,3.80
2018-09-28T03:13:11.306Z,3.80
2018-09-28T03:15:41.930Z,2.43
2018-09-28T03:18:12.894Z,3.60
2018-09-28T03:20:43.691Z,3.80
2018-09-28T03:23:14.368Z,3.33
2018-09-28T03:25:45.315Z,4.47
2018-09-28T03:28:16.524Z,3.37
2018-09-28T03:30:47.392Z,3.60
2018-09-28T03:33:18.050Z,4.03
2018-09-28T03:35:48.978Z,2.80
2018-09-28T03:38:19.646Z,3.00
2018-09-28T03:40:50.541Z,4.20
2018-09-28T03:43:21.488Z,4.20
2018-09-28T03:45:52.336Z,3.07
2018-09-28T03:48:22.895Z,3.60
2018-09-28T03:50:53.657Z,3.37
2018-09-28T03:53:24.314Z,3.10
2018-09-28T03:55:55.215Z,3.57
2018-09-28T03:58:25.898Z,3.47
2018-09-28T04:00:56.710Z,3.23
2018-09-28T04:03:27.623Z,3.47
2018-09-28T04:05:58.218Z,3.77
2018-09-28T04:08:29.093Z,4.13
2018-09-28T04:10:59.753Z,2.40
2018-09-28T04:13:30.542Z,2.83
2018-09-28T04:16:01.147Z,7.27
2018-09-28T04:18:31.776Z,4.23
2018-09-28T04:21:02.954Z,4.27
2018-09-28T04:23:33.913Z,3.33
2018-09-28T04:26:04.800Z,3.97
2018-09-28T04:28:35.474Z,3.60
2018-09-28T04:31:06.057Z,3.20
2018-09-28T04:33:36.818Z,3.83
2018-09-28T04:36:07.736Z,3.33
2018-09-28T04:38:38.843Z,4.90
2018-09-28T04:41:09.716Z,4.23
2018-09-28T04:43:40.404Z,3.53
2018-09-28T04:46:11.324Z,3.40
2018-09-28T04:48:42.248Z,3.83
2018-09-28T04:51:12.925Z,5.77
2018-09-28T04:53:44.360Z,2.93
2018-09-28T04:56:14.951Z,6.10
2018-09-28T04:58:46.367Z,3.00
2018-09-28T05:01:17.355Z,4.13
2018-09-28T05:03:48.946Z,4.00
2018-09-28T05:06:19.961Z,3.57
2018-09-28T05:08:51.536Z,3.33
2018-09-28T05:11:22.479Z,3.00
2018-09-28T05:13:53.703Z,4.23
2018-09-28T05:16:24.613Z,4.17
2018-09-28T05:18:56.785Z,3.50
2018-09-28T05:21:28.384Z,2.37
2018-09-28T05:23:59.174Z,4.43
2018-09-28T05:26:30.334Z,2.80
2018-09-28T05:29:01.255Z,3.10
2018-09-28T05:31:32.211Z,4.20
2018-09-28T05:34:02.993Z,3.63
2018-09-28T05:36:33.929Z,7.03
2018-09-28T05:39:07.502Z,8.13
2018-09-28T05:41:38.316Z,13.87
2018-09-28T05:44:09.227Z,7.50
2018-09-28T05:46:40.036Z,8.03
2018-09-28T05:49:10.827Z,8.73
2018-09-28T05:51:41.710Z,6.20
2018-09-28T05:54:12.295Z,7.27
2018-09-28T05:56:42.903Z,8.07
2018-09-28T05:59:18.566Z,7.07
2018-09-28T06:01:54.548Z,9.10
2018-09-28T06:04:30.177Z,7.30
2018-09-28T06:07:01.096Z,8.77
2018-09-28T06:09:31.998Z,6.23
2018-09-28T06:12:02.919Z,7.50
2018-09-28T06:14:33.752Z,4.17
2018-09-28T06:17:04.386Z,3.77
2018-09-28T06:19:35.227Z,7.47
2018-09-28T06:22:05.754Z,3.47
2018-09-28T06:24:36.560Z,4.10
2018-09-28T06:27:07.465Z,5.07
2018-09-28T06:29:38.287Z,3.00
2018-09-28T06:32:09.076Z,3.70
2018-09-28T06:34:39.732Z,5.13
2018-09-28T06:37:10.681Z,6.10
2018-09-28T06:39:41.442Z,5.03
2018-09-28T06:42:12.128Z,6.03
2018-09-28T06:44:43.405Z,8.83
2018-09-28T06:47:14.466Z,7.03
2018-09-28T06:49:45.466Z,4.17
2018-09-28T06:52:16.406Z,3.77
2018-09-28T06:54:47.292Z,4.40
2018-09-28T06:57:18.278Z,5.63
2018-09-28T06:59:49.049Z,6.50
2018-09-28T07:02:20.080Z,4.53
2018-09-28T07:04:50.779Z,4.73
2018-09-28T07:07:21.569Z,3.53
2018-09-28T07:09:52.602Z,3.97
2018-09-28T07:12:23.403Z,4.87
2018-09-28T07:14:54.099Z,4.27
2018-09-28T07:17:25.028Z,5.47
2018-09-28T07:19:55.791Z,10.10
2018-09-28T07:22:26.723Z,6.50
2018-09-28T07:24:57.433Z,7.40
2018-09-28T07:27:28.175Z,5.37
2018-09-28T07:29:58.751Z,4.87
2018-09-28T07:32:29.425Z,7.23
2018-09-28T07:35:00.013Z,4.87
2018-09-28T07:37:30.786Z,4.60
2018-09-28T07:40:01.602Z,4.53
2018-09-28T07:42:32.323Z,6.60
2018-09-28T07:45:02.974Z,4.40
2018-09-28T07:47:33.597Z,5.03
2018-09-28T07:50:04.956Z,7.27
2018-09-28T07:52:35.731Z,4.83
2018-09-28T07:55:06.654Z,5.07
2018-09-28T07:57:37.456Z,5.90
2018-09-28T08:00:08.267Z,6.37
2018-09-28T08:02:38.790Z,5.87
2018-09-28T08:05:09.310Z,5.70
2018-09-28T08:07:39.846Z,6.37
2018-09-28T08:10:10.669Z,4.00
2018-09-28T08:12:41.522Z,4.53
2018-09-28T08:15:12.349Z,5.50
2018-09-28T08:17:42.912Z,6.97
2018-09-28T08:20:13.959Z,9.10
2018-09-28T08:22:44.482Z,6.13
2018-09-28T08:25:15.358Z,6.20
2018-09-28T08:27:46.050Z,6.70
2018-09-28T08:30:16.622Z,7.73
2018-09-28T08:32:47.161Z,6.27
2018-09-28T08:35:17.698Z,8.47
2018-09-28T08:37:48.223Z,9.50
2018-09-28T08:40:18.733Z,5.93
2018-09-28T08:42:49.297Z,7.93
2018-09-28T08:45:20.205Z,7.07
2018-09-28T08:47:51.025Z,13.83
2018-09-28T08:50:21.952Z,7.77
2018-09-28T08:52:52.462Z,10.40
2018-09-28T08:55:22.995Z,9.37
2018-09-28T08:57:53.790Z,9.80
2018-09-28T09:00:24.328Z,6.97
2018-09-28T09:02:55.074Z,11.43
2018-09-28T09:05:25.639Z,10.43
2018-09-28T09:07:56.447Z,11.97
2018-09-28T09:10:26.951Z,9.23
2018-09-28T09:12:57.512Z,13.37
2018-09-28T09:15:28.031Z,10.10
2018-09-28T09:17:58.979Z,14.90
2018-09-28T09:20:29.627Z,11.70
2018-09-28T09:23:00.416Z,11.43
2018-09-28T09:25:31.278Z,9.70
2018-09-28T09:28:02.547Z,13.63
2018-09-28T09:30:33.137Z,11.83
2018-09-28T09:33:04.019Z,15.40
2018-09-28T09:35:34.693Z,11.57
2018-09-28T09:38:05.498Z,12.63
2018-09-28T09:40:36.059Z,10.20
2018-09-28T09:43:06.893Z,17.87
2018-09-28T09:45:38.009Z,16.97
2018-09-28T09:48:08.651Z,16.63
2018-09-28T09:50:39.345Z,16.57
2018-09-28T09:53:10.178Z,20.93
2018-09-28T09:55:40.923Z,18.60
2018-09-28T09:58:11.565Z,18.70
2018-09-28T10:00:47.430Z,17.43
2018-09-28T10:03:23.250Z,19.40
2018-09-28T10:05:54.102Z,18.73
2018-09-28T10:08:24.961Z,21.50
2018-09-28T10:10:55.643Z,18.97
2018-09-28T10:13:26.226Z,17.77
2018-09-28T10:15:57.038Z,16.57
2018-09-28T10:18:27.678Z,17.60
2018-09-28T10:20:58.523Z,16.73
2018-09-28T10:23:29.300Z,18.30
2018-09-28T10:26:00.181Z,18.67
2018-09-28T10:28:31.003Z,20.70
2018-09-28T10:31:01.853Z,20.13
2018-09-28T10:33:32.516Z,21.00
2018-09-28T10:36:03.278Z,18.13
2018-09-28T10:38:34.076Z,23.33
2018-09-28T10:41:04.685Z,19.27
2018-09-28T10:43:35.366Z,14.50
2018-09-28T10:46:06.239Z,17.37
2018-09-28T10:48:37.160Z,15.93
2018-09-28T10:51:07.783Z,17.07
2018-09-28T10:53:38.270Z,14.17
2018-09-28T10:56:09.163Z,15.63
2018-09-28T10:58:40.001Z,14.93
2018-09-28T11:01:10.976Z,16.40
2018-09-28T11:03:41.555Z,12.43
2018-09-28T11:06:12.302Z,16.67
2018-09-28T11:08:42.879Z,14.97
2018-09-28T11:11:13.676Z,19.17
2018-09-28T11:13:44.290Z,20.03
2018-09-28T11:16:14.875Z,14.57
2018-09-28T11:18:45.815Z,16.30
2018-09-28T11:21:16.902Z,16.77
2018-09-28T11:23:47.606Z,13.93
2018-09-28T11:26:18.173Z,16.37
2018-09-28T11:28:49.112Z,15.87
2018-09-28T11:31:19.726Z,13.70
2018-09-28T11:33:50.622Z,12.50
2018-09-28T11:36:21.356Z,15.80
2018-09-28T11:38:52.247Z,16.93
2018-09-28T11:41:24.326Z,11.53
2018-09-28T11:43:55.363Z,15.83
2018-09-28T11:46:25.887Z,14.30
2018-09-28T11:48:56.650Z,15.00
2018-09-28T11:51:27.380Z,16.83
2018-09-28T11:53:57.985Z,13.27
2018-09-28T11:56:28.644Z,16.37
2018-09-28T11:58:59.422Z,14.73
2018-09-28T12:01:30.243Z,13.50
2018-09-28T12:04:01.022Z,14.10
2018-09-28T12:06:31.671Z,16.67
2018-09-28T12:09:02.603Z,13.60
2018-09-28T12:11:33.410Z,16.40
2018-09-28T12:14:04.088Z,15.87
2018-09-28T12:16:34.694Z,13.70
2018-09-28T12:19:05.691Z,16.90
2018-09-28T12:21:36.293Z,15.10
2018-09-28T12:24:07.318Z,15.43
2018-09-28T12:26:38.346Z,14.47
2018-09-28T12:29:08.859Z,15.33
2018-09-28T12:31:40.219Z,15.17
2018-09-28T12:34:10.892Z,16.67
2018-09-28T12:36:41.618Z,16.20
2018-09-28T12:39:13.179Z,14.47
2018-09-28T12:41:43.990Z,10.47
2018-09-28T12:44:14.595Z,11.87
2018-09-28T12:46:45.389Z,11.67
2018-09-28T12:49:16.234Z,14.63
2018-09-28T12:51:47.143Z,12.37
2018-09-28T12:54:17.839Z,12.90
2018-09-28T12:56:48.601Z,12.47
2018-09-28T12:59:19.423Z,14.67
2018-09-28T13:01:50.193Z,12.40
2018-09-28T13:04:20.866Z,16.27
2018-09-28T13:06:51.509Z,9.57
2018-09-28T13:09:22.024Z,10.20
2018-09-28T13:11:52.576Z,10.63
2018-09-28T13:14:23.549Z,12.03
2018-09-28T13:16:54.326Z,12.43
2018-09-28T13:19:24.878Z,13.23
2018-09-28T13:21:55.770Z,16.43
2018-09-28T13:24:26.487Z,15.03
2018-09-28T13:26:58.080Z,8.43
2018-09-28T13:29:28.839Z,8.00
2018-09-28T13:31:59.382Z,10.83
2018-09-28T13:34:30.197Z,10.03
2018-09-28T13:37:00.981Z,10.90
2018-09-28T13:39:31.493Z,9.27
2018-09-28T13:42:01.986Z,9.93
2018-09-28T13:44:32.548Z,10.07
2018-09-28T13:47:03.647Z,10.43
2018-09-28T13:49:34.243Z,10.87
2018-09-28T13:52:04.916Z,11.67
2018-09-28T13:54:36.401Z,9.33
2018-09-28T13:57:07.124Z,13.33
2018-09-28T13:59:37.683Z,13.07
2018-09-28T14:02:08.227Z,11.53
2018-09-28T14:04:39.208Z,10.43
2018-09-28T14:07:10.321Z,8.67
2018-09-28T14:09:40.807Z,9.03
2018-09-28T14:12:11.456Z,9.07
2018-09-28T14:14:42.153Z,11.67
2018-09-28T14:17:12.926Z,10.27
2018-09-28T14:19:43.436Z,9.37
2018-09-28T14:22:14.270Z,11.77
2018-09-28T14:24:45.286Z,12.13
2018-09-28T14:27:16.334Z,11.23
2018-09-28T14:29:47.147Z,8.40
2018-09-28T14:32:17.721Z,7.90
2018-09-28T14:34:49.100Z,7.50
2018-09-28T14:37:19.654Z,7.43
2018-09-28T14:39:50.467Z,8.07
2018-09-28T14:42:21.350Z,7.27
2018-09-28T14:44:52.106Z,4.57
2018-09-28T14:47:22.827Z,7.07
2018-09-28T14:49:53.355Z,6.37
2018-09-28T14:52:23.986Z,6.20
2018-09-28T14:54:54.699Z,5.93
2018-09-28T14:57:25.634Z,8.67
2018-09-28T14:59:56.151Z,7.00
2018-09-28T15:02:26.845Z,6.07
2018-09-28T15:04:57.734Z,5.77
2018-09-28T15:07:32.967Z,7.07
2018-09-28T15:10:04.198Z,6.80
2018-09-28T15:12:34.844Z,6.43
2018-09-28T15:15:05.872Z,7.13
2018-09-28T15:17:37.978Z,7.47
2018-09-28T15:20:08.847Z,6.20
2018-09-28T15:22:39.880Z,9.10
2018-09-28T15:25:10.655Z,7.57
2018-09-28T15:27:41.241Z,6.53
2018-09-28T15:30:11.751Z,8.50
2018-09-28T15:32:42.785Z,7.67
2018-09-28T15:35:13.806Z,10.03
2018-09-28T15:37:44.516Z,9.27
2018-09-28T15:40:15.436Z,7.07
2018-09-28T15:42:46.230Z,7.13
2018-09-28T15:45:17.223Z,7.27
2018-09-28T15:47:47.772Z,8.53
2018-09-28T15:50:18.301Z,7.00
2018-09-28T15:52:48.886Z,9.37
2018-09-28T15:55:19.823Z,5.97
2018-09-28T15:57:50.618Z,5.80
2018-09-28T16:00:21.288Z,5.67
2018-09-28T16:02:52.232Z,6.23
2018-09-28T16:05:22.745Z,5.60
2018-09-28T16:07:53.407Z,8.53
2018-09-28T16:10:23.975Z,7.80
2018-09-28T16:12:54.780Z,7.10
2018-09-28T16:15:25.533Z,7.30
2018-09-28T16:17:56.067Z,7.97
2018-09-28T16:20:26.598Z,5.50
2018-09-28T16:22:57.160Z,5.63
2018-09-28T16:25:27.802Z,6.27
2018-09-28T16:27:58.286Z,6.03
2018-09-28T16:30:28.847Z,4.40
2018-09-28T16:32:59.677Z,5.97
2018-09-28T16:35:30.617Z,6.80
2018-09-28T16:38:01.431Z,4.23
2018-09-28T16:40:32.040Z,6.13
2018-09-28T16:43:02.850Z,5.93
2018-09-28T16:45:33.485Z,4.30
2018-09-28T16:48:04.111Z,4.37
2018-09-28T16:50:34.683Z,5.53
2018-09-28T16:53:05.705Z,6.53
2018-09-28T16:55:36.428Z,5.37
2018-09-28T16:58:07.014Z,2.77
2018-09-28T17:00:38.279Z,4.40
2018-09-28T17:03:10.322Z,3.43
2018-09-28T17:05:41.145Z,4.67
2018-09-28T17:08:11.735Z,6.70
2018-09-28T17:10:42.322Z,4.83
2018-09-28T17:13:12.953Z,4.73
2018-09-28T17:15:43.510Z,5.30
2018-09-28T17:18:14.238Z,6.37
2018-09-28T17:20:44.790Z,6.27
2018-09-28T17:23:15.340Z,5.70
2018-09-28T17:25:46.228Z,5.03
2018-09-28T17:28:17.103Z,6.20
2018-09-28T17:30:48.740Z,5.87
2018-09-28T17:33:19.265Z,6.67
2018-09-28T17:35:50.099Z,6.43
2018-09-28T17:38:20.651Z,5.03
2018-09-28T17:40:51.283Z,8.20
2018-09-28T17:43:21.813Z,4.20
2018-09-28T17:45:52.380Z,5.27
2018-09-28T17:48:22.896Z,5.83
2018-09-28T17:50:53.531Z,5.23
2018-09-28T17:53:24.105Z,7.10
2018-09-28T17:55:54.636Z,5.27
2018-09-28T17:58:25.392Z,8.70
2018-09-28T18:00:56.228Z,6.03
2018-09-28T18:03:26.986Z,5.93
2018-09-28T18:05:57.664Z,6.20
2018-09-28T18:08:28.245Z,5.43
2018-09-28T18:10:58.799Z,6.70
2018-09-28T18:13:29.398Z,3.83
2018-09-28T18:16:00.235Z,5.20
2018-09-28T18:18:31.051Z,4.13
2018-09-28T18:21:01.728Z,6.27
2018-09-28T18:23:32.306Z,2.50
2018-09-28T18:26:02.844Z,4.17
2018-09-28T18:28:33.541Z,4.93
2018-09-28T18:31:04.705Z,4.03
2018-09-28T18:33:35.433Z,5.30
2018-09-28T18:36:06.171Z,4.53
2018-09-28T18:38:36.959Z,4.37
2018-09-28T18:41:07.947Z,8.10
2018-09-28T18:43:38.707Z,4.37
2018-09-28T18:46:09.494Z,2.67
2018-09-28T18:48:40.093Z,7.67
2018-09-28T18:51:10.798Z,4.43
2018-09-28T18:53:41.353Z,4.80
2018-09-28T18:56:12.126Z,5.47
2018-09-28T18:58:42.677Z,3.00
2018-09-28T19:01:15.130Z,4.30
2018-09-28T19:03:46.053Z,3.60
2018-09-28T19:06:17.089Z,3.60
2018-09-28T19:08:47.827Z,4.67
2018-09-28T19:11:18.406Z,4.43
2018-09-28T19:13:48.896Z,5.00
2018-09-28T19:16:19.440Z,5.63
2018-09-28T19:18:50.557Z,3.80
2018-09-28T19:21:21.227Z,4.27
2018-09-28T19:23:51.830Z,3.63
2018-09-28T19:26:22.369Z,5.47
2018-09-28T19:28:53.098Z,4.27
2018-09-28T19:31:23.701Z,4.73
2018-09-28T19:33:54.260Z,4.77
2018-09-28T19:36:24.832Z,6.47
2018-09-28T19:38:55.482Z,3.50
2018-09-28T19:41:26.223Z,7.30
2018-09-28T19:43:57.037Z,2.17
2018-09-28T19:46:28.205Z,8.23
2018-09-28T19:48:58.990Z,6.87
2018-09-28T19:51:35.722Z,5.13
2018-09-28T19:54:07.911Z,7.03
2018-09-28T19:56:38.517Z,3.93
2018-09-28T19:59:09.026Z,3.77
2018-09-28T20:01:39.666Z,4.37
2018-09-28T20:04:10.578Z,4.10
2018-09-28T20:06:41.205Z,3.57
2018-09-28T20:09:12.328Z,5.47
2018-09-28T20:11:43.001Z,5.80
2018-09-28T20:14:13.662Z,7.20
2018-09-28T20:16:44.255Z,8.03
2018-09-28T20:19:14.823Z,6.40
2018-09-28T20:21:45.645Z,4.60
2018-09-28T20:24:16.398Z,10.07
2018-09-28T20:26:47.086Z,2.87
2018-09-28T20:29:17.763Z,4.97
2018-09-28T20:31:48.604Z,3.60
2018-09-28T20:34:19.584Z,7.73
2018-09-28T20:36:50.161Z,5.50
2018-09-28T20:39:20.869Z,5.80
2018-09-28T20:41:51.442Z,3.20
2018-09-28T20:44:22.070Z,3.70
2018-09-28T20:46:52.704Z,3.70
2018-09-28T20:49:23.248Z,6.23
2018-09-28T20:51:54.017Z,6.20
2018-09-28T20:54:24.798Z,4.23
2018-09-28T20:56:55.716Z,5.37
2018-09-28T20:59:26.617Z,3.63
2018-09-28T21:01:57.318Z,9.23
2018-09-28T21:04:28.246Z,5.00
2018-09-28T21:07:02.106Z,4.13
2018-09-28T21:09:33.423Z,6.23
2018-09-28T21:12:04.278Z,6.47
2018-09-28T21:14:34.928Z,7.63
2018-09-28T21:17:05.872Z,4.43
2018-09-28T21:19:36.752Z,8.00
2018-09-28T21:22:07.365Z,6.47
2018-09-28T21:24:38.160Z,7.53
2018-09-28T21:27:09.002Z,6.63
2018-09-28T21:29:39.842Z,7.70
2018-09-28T21:32:10.422Z,5.10
2018-09-28T21:34:41.142Z,4.33
2018-09-28T21:37:11.810Z,5.47
2018-09-28T21:39:42.480Z,5.00
2018-09-28T21:42:13.031Z,5.33
2018-09-28T21:44:43.668Z,5.17
2018-09-28T21:47:14.503Z,7.73
2018-09-28T21:49:45.244Z,5.93
2018-09-28T21:52:16.127Z,5.77
2018-09-28T21:54:47.012Z,7.20
2018-09-28T21:57:17.841Z,8.23
2018-09-28T21:59:48.423Z,3.70
2018-09-28T22:02:19.205Z,7.70
2018-09-28T22:04:50.181Z,4.50
2018-09-28T22:07:21.050Z,5.90
2018-09-28T22:09:51.685Z,5.67
2018-09-28T22:12:22.299Z,8.33
2018-09-28T22:14:53.142Z,5.90
2018-09-28T22:17:24.052Z,3.83
2018-09-28T22:19:54.954Z,6.40
2018-09-28T22:22:25.702Z,6.13
2018-09-28T22:24:56.663Z,4.77
2018-09-28T22:27:27.317Z,5.03
2018-09-28T22:29:58.286Z,5.57
2018-09-28T22:32:28.942Z,5.93
2018-09-28T22:35:00.050Z,4.70
2018-09-28T22:37:31.117Z,3.23
2018-09-28T22:40:01.739Z,6.43
2018-09-28T22:42:32.455Z,5.40
2018-09-28T22:45:03.098Z,7.40
2018-09-28T22:47:33.746Z,6.10
2018-09-28T22:50:04.666Z,5.60
2018-09-28T22:52:35.480Z,4.70
2018-09-28T22:55:06.380Z,4.67
2018-09-28T22:57:37.384Z,6.00
2018-09-28T23:00:07.941Z,4.43
2018-09-28T23:02:38.643Z,4.63
2018-09-28T23:05:09.310Z,3.37
2018-09-28T23:07:40.225Z,3.90
2018-09-28T23:10:10.834Z,4.90
2018-09-28T23:12:41.436Z,5.63
2018-09-28T23:15:12.008Z,5.73
2018-09-28T23:17:42.742Z,5.10
2018-09-28T23:20:13.361Z,7.50
2018-09-28T23:22:43.952Z,6.07
2018-09-28T23:25:14.513Z,3.33
2018-09-28T23:27:45.022Z,7.23
2018-09-28T23:30:15.675Z,7.67
2018-09-28T23:32:46.454Z,5.87
2018-09-28T23:35:17.135Z,5.77
2018-09-28T23:37:47.847Z,6.23
2018-09-28T23:40:18.742Z,6.83
2018-09-28T23:42:49.488Z,4.00
2018-09-28T23:45:20.362Z,3.80
2018-09-28T23:47:50.900Z,3.30
2018-09-28T23:50:21.500Z,6.63
2018-09-28T23:52:52.473Z,6.73
2018-09-28T23:55:23.246Z,4.73
2018-09-28T23:57:54.161Z,4.60
